createdAt,value
2022-08-01T00:00:10.674Z,0
2022-08-01T00:05:27.846Z,0
2022-08-01T00:10:45.277Z,0
2022-08-01T00:16:02.643Z,0
2022-08-01T00:21:19.986Z,0
2022-08-01T00:32:01.977Z,0
2022-08-01T00:37:19.781Z,0
2022-08-01T00:42:41.627Z,0
2022-08-01T00:48:00.624Z,0
2022-08-01T00:53:21.170Z,0
2022-08-01T00:58:38.321Z,0
2022-08-01T01:03:58.861Z,0
2022-08-01T01:09:17.075Z,0
2022-08-01T01:14:34.374Z,0
2022-08-01T01:19:51.696Z,0
2022-08-01T01:25:09.065Z,0
2022-08-01T01:30:26.373Z,0
2022-08-01T01:41:00.998Z,0
2022-08-01T01:46:18.569Z,0
2022-08-01T01:51:36.094Z,0
2022-08-01T01:56:56.022Z,0
2022-08-01T02:02:13.622Z,0
2022-08-01T02:12:52.205Z,0
2022-08-01T02:18:09.411Z,0
2022-08-01T02:23:28.921Z,0
2022-08-01T02:28:46.303Z,0
2022-08-01T02:34:03.506Z,0
2022-08-01T02:39:20.839Z,0
2022-08-01T02:44:38.110Z,0
2022-08-01T02:49:58.464Z,0
2022-08-01T02:55:15.763Z,0
2022-08-01T03:00:50.256Z,0
2022-08-01T03:06:07.682Z,0
2022-08-01T03:11:25.009Z,0
2022-08-01T03:16:45.725Z,0
2022-08-01T03:22:05.333Z,0.5
2022-08-01T03:27:23.367Z,1.1
2022-08-01T03:32:40.571Z,2.7
2022-08-01T03:38:15.656Z,5.9
2022-08-01T03:43:33.402Z,13.2
2022-08-01T03:48:50.245Z,22.9
2022-08-01T03:54:07.812Z,56.7
2022-08-01T03:59:25.003Z,87.5
2022-08-01T04:09:52.291Z,223.7
2022-08-01T04:15:09.272Z,306.3
2022-08-01T04:25:45.579Z,259.2
2022-08-01T04:31:02.505Z,195.8
2022-08-01T04:36:26.954Z,290.8
2022-08-01T04:41:44.122Z,391.7
2022-08-01T04:47:01.562Z,430.4
2022-08-01T04:52:27.780Z,1040.8
2022-08-01T04:57:47.398Z,1305
2022-08-01T05:03:04.782Z,1464.6
2022-08-01T05:08:21.763Z,1484.2
2022-08-01T05:13:38.739Z,1910.8
2022-08-01T05:18:55.708Z,2835
2022-08-01T05:24:13.209Z,3792.5
2022-08-01T05:29:30.419Z,1880.8
2022-08-01T05:34:47.113Z,1722.5
2022-08-01T05:40:04.331Z,3350.8
2022-08-01T05:45:26.582Z,6793.8
2022-08-01T05:50:44.354Z,6461.3
2022-08-01T05:56:01.608Z,5625.8
2022-08-01T06:01:18.537Z,7006.3
2022-08-01T06:06:35.447Z,4612.9
2022-08-01T06:11:52.120Z,2190.8
2022-08-01T06:17:08.636Z,3062.9
2022-08-01T06:22:30.079Z,2597.9
2022-08-01T06:27:48.361Z,4706.7
2022-08-01T06:33:06.563Z,5419.6
2022-08-01T06:38:23.659Z,4848.3
2022-08-01T06:43:40.862Z,4186.3
2022-08-01T06:48:57.977Z,5277.9
2022-08-01T06:54:15.265Z,4236.7
2022-08-01T06:59:31.987Z,2428.8
2022-08-01T07:04:49.210Z,1989.6
2022-08-01T07:10:11.569Z,3360.4
2022-08-01T07:15:29.200Z,3862.1
2022-08-01T07:20:50.317Z,7802.5
2022-08-01T07:26:10.523Z,7230.4
2022-08-01T07:31:31.954Z,8380.8
2022-08-01T07:36:49.292Z,8169.2
2022-08-01T07:42:08.349Z,5017.1
2022-08-01T07:47:25.466Z,2698.3
2022-08-01T07:52:42.300Z,2707.9
2022-08-01T07:57:59.164Z,9250.8
2022-08-01T08:03:16.568Z,13329.2
2022-08-01T08:13:54.442Z,10011.7
2022-08-01T08:19:11.779Z,11356.2
2022-08-01T08:29:48.939Z,10474.6
2022-08-01T08:35:06.310Z,20793.3
2022-08-01T08:40:26.517Z,40382.5
2022-08-01T08:45:56.191Z,16761.7
2022-08-01T08:51:16.667Z,20596.2
2022-08-01T08:56:43.153Z,17793.3
2022-08-01T09:01:59.456Z,11950.8
2022-08-01T09:07:16.233Z,20507.5
2022-08-01T09:12:34.205Z,25421.2
2022-08-01T09:17:52.062Z,20898.7
2022-08-01T09:23:08.149Z,15513.7
2022-08-01T09:28:24.991Z,12964.2
2022-08-01T09:33:48.854Z,7232.5
2022-08-01T09:39:08.474Z,48480.8
2022-08-01T09:44:40.055Z,25896.7
2022-08-01T09:49:59.093Z,23340.8
2022-08-01T09:55:17.538Z,46275
2022-08-01T10:00:45.116Z,53787.7
2022-08-01T10:06:04.277Z,40580
2022-08-01T10:16:41.549Z,61417.2
2022-08-01T10:27:21.717Z,22827.1
2022-08-01T10:32:41.226Z,14066.2
2022-08-01T10:37:59.168Z,15633.3
2022-08-01T10:43:21.371Z,68831.1
2022-08-01T10:48:41.117Z,64342.5
2022-08-01T10:53:58.150Z,64538.4
2022-08-01T10:59:18.526Z,18723.7
2022-08-01T11:05:04.191Z,49990
2022-08-01T11:10:23.728Z,23713.7
2022-08-01T11:15:49.825Z,18157.5
2022-08-01T11:21:58.432Z,23045.4
2022-08-01T11:27:17.351Z,57304.1
2022-08-01T11:32:58.951Z,19365.4
2022-08-01T11:38:32.141Z,58741.6
2022-08-01T11:49:11.198Z,46818.3
2022-08-01T11:54:35.019Z,27477.5
2022-08-01T12:00:03.070Z,69046.7
2022-08-01T12:05:24.750Z,48937.5
2022-08-01T12:10:49.898Z,68956.9
2022-08-01T12:16:05.725Z,19907.5
2022-08-01T12:21:22.349Z,38222.5
2022-08-01T12:32:00.323Z,23791.2
2022-08-01T12:37:17.612Z,19845.8
2022-08-01T12:42:33.474Z,26922.1
2022-08-01T12:53:10.417Z,15222.9
2022-08-01T12:58:33.589Z,26758.3
2022-08-01T13:03:51.194Z,35141.7
2022-08-01T13:09:08.075Z,23275.8
2022-08-01T13:14:28.049Z,28947.5
2022-08-01T13:19:47.321Z,27718.3
2022-08-01T13:25:04.094Z,22434.2
2022-08-01T13:30:20.826Z,23312.1
2022-08-01T13:35:37.953Z,20510.8
2022-08-01T13:40:56.104Z,33103.3
2022-08-01T13:46:13.609Z,22026.7
2022-08-01T13:51:35.574Z,20808.8
2022-08-01T14:02:11.807Z,20052.9
2022-08-01T14:07:31.500Z,34650
2022-08-01T14:13:36.797Z,36237.5
2022-08-01T14:18:54.242Z,25653.3
2022-08-01T14:24:13.624Z,57562.9
2022-08-01T14:30:00.092Z,53870.3
2022-08-01T14:35:20.529Z,44513.3
2022-08-01T14:40:39.122Z,30559.2
2022-08-01T14:46:29.638Z,27415
2022-08-01T14:51:49.375Z,17396.7
2022-08-01T14:57:05.578Z,12435.4
2022-08-01T15:02:26.491Z,17555.4
2022-08-01T15:07:52.189Z,33180
2022-08-01T15:13:10.742Z,13377.1
2022-08-01T15:18:27.868Z,13339.6
2022-08-01T15:23:43.835Z,12108.3
2022-08-01T15:29:01.289Z,15205
2022-08-01T15:39:37.143Z,10838.3
2022-08-01T15:44:53.814Z,12800.8
2022-08-01T15:50:10.433Z,10997.1
2022-08-01T15:55:27.137Z,11355.8
2022-08-01T16:00:44.076Z,10466.7
2022-08-01T16:06:01.077Z,9788.3
2022-08-01T16:11:20.582Z,10347.9
2022-08-01T16:16:38.073Z,10092.5
2022-08-01T16:21:54.816Z,8607.1
2022-08-01T16:27:11.703Z,10156.3
2022-08-01T16:32:30.560Z,8892.1
2022-08-01T16:38:10.456Z,8386.7
2022-08-01T16:43:27.365Z,9235
2022-08-01T16:48:44.067Z,8115
2022-08-01T16:54:01.118Z,7650
2022-08-01T16:59:18.210Z,7284.6
2022-08-01T17:04:35.465Z,7533.3
2022-08-01T17:09:52.694Z,7208.8
2022-08-01T17:15:09.680Z,7290.4
2022-08-01T17:20:26.342Z,5476.7
2022-08-01T17:25:42.988Z,3885.8
2022-08-01T17:30:59.831Z,3462.1
2022-08-01T17:36:16.553Z,3076.7
2022-08-01T17:41:33.591Z,2731.7
2022-08-01T17:46:50.800Z,2553.8
2022-08-01T17:52:07.745Z,2377.9
2022-08-01T17:57:24.537Z,2300
2022-08-01T18:02:41.181Z,2097.1
2022-08-01T18:08:00.788Z,1973.3
2022-08-01T18:13:20.509Z,1843.7
2022-08-01T18:18:41.928Z,1714.2
2022-08-01T18:23:58.767Z,1592.5
2022-08-01T18:29:23.178Z,1461.3
2022-08-01T18:35:06.556Z,1320
2022-08-01T18:40:29.593Z,1170
2022-08-01T18:45:46.793Z,966.3
2022-08-01T18:51:03.705Z,833.3
2022-08-01T19:01:49.556Z,565.4
2022-08-01T19:07:06.765Z,426.7
2022-08-01T19:12:23.964Z,295
2022-08-01T19:17:43.723Z,196.7
2022-08-01T19:23:00.975Z,120
2022-08-01T19:28:18.131Z,67.9
2022-08-01T19:33:35.053Z,36.2
2022-08-01T19:38:51.924Z,17.5
2022-08-01T19:44:09.490Z,8.5
2022-08-01T19:49:26.759Z,3.7
2022-08-01T19:54:44.046Z,1.6
2022-08-01T20:00:01.388Z,0.6
2022-08-01T20:05:18.835Z,0.1
2022-08-01T20:10:35.934Z,0
2022-08-01T20:15:53.406Z,0
2022-08-01T20:21:10.849Z,0
2022-08-01T20:26:28.038Z,0
2022-08-01T20:31:45.310Z,0
2022-08-01T20:37:02.738Z,0
2022-08-01T20:42:34.280Z,0
2022-08-01T20:47:51.656Z,0
2022-08-01T20:53:09.142Z,0
2022-08-01T20:58:26.683Z,0
2022-08-01T21:03:43.769Z,0
2022-08-01T21:09:12.813Z,0
2022-08-01T21:14:30.605Z,0
2022-08-01T21:19:48.119Z,0
2022-08-01T21:25:06.046Z,0
2022-08-01T21:30:23.249Z,0
2022-08-01T21:35:40.722Z,0
2022-08-01T21:40:58.127Z,0
2022-08-01T21:46:17.983Z,0
2022-08-01T21:51:35.904Z,0
2022-08-01T21:56:53.521Z,0
2022-08-01T22:02:11.527Z,0
2022-08-01T22:07:46.250Z,0
2022-08-01T22:13:03.804Z,0
2022-08-01T22:18:21.211Z,0
2022-08-01T22:23:39.060Z,0
2022-08-01T22:29:03.633Z,0
2022-08-01T22:34:21.528Z,0
2022-08-01T22:39:38.807Z,0
2022-08-01T22:44:55.936Z,0
2022-08-01T22:50:16.985Z,0
2022-08-01T22:55:57.003Z,0
2022-08-01T23:01:20.898Z,0
2022-08-01T23:06:38.938Z,0
2022-08-01T23:11:55.988Z,0
2022-08-01T23:17:26.271Z,0
2022-08-01T23:22:45.780Z,0
2022-08-01T23:28:10.254Z,0
2022-08-01T23:33:28.024Z,0
2022-08-01T23:38:45.264Z,0
2022-08-01T23:44:06.318Z,0
2022-08-01T23:49:27.089Z,0
2022-08-01T23:54:44.433Z,0
